Nassauborg — PHDU — position and weather

sailwx.info

Track history (hours):
 
Tides and Currents Weather Stations Pressure Air Temp Water Temp Dewpoint Dewpoint Depression Visibility Wind Speed Wind Dir Waves Ship Positions

Nassauborg

Ship's website: http://www.wagenborg.com/index.cfm?pid=37&itemid=158&contentitemid=236

Last reported at 2017-Feb-14 10:12 UTC. Time now 2017-Feb-21 17:29 UTC.
Position N 36°09' E 014°41'.

Length 143 m; beam 22 m.

Type: Ship. MMSI: 246430000.

Date/timePositionNaut miles runAvg speedWind from/ knotsBaromVisibWave heightAir tempDewpointWater temp
2017-Feb-14 10:12N 36°09' E 014°41'711.4
2017-Feb-14 09:33N 36°12' E 014°32'1110.8
2017-Feb-14 08:33N 36°14' E 014°19'1310.8
2017-Feb-14 07:23N 36°18' E 014°04'  
2017-Feb-10 20:34N 35°60' W 005°14'1413.1
2017-Feb-10 19:31N 35°57' W 005°30'257 9.8
2017-Feb-09 17:23N 38°19' W 009°59'911.1
2017-Feb-09 16:34N 38°28' W 010°01'1510.8
2017-Feb-09 15:11N 38°42' W 010°06'1710.2
2017-Feb-09 13:32N 38°59' W 010°06'1010.1
2017-Feb-09 12:32N 39°09' W 010°07'  
2017-Feb-06 13:15N 49°45' W 003°32'710.1
2017-Feb-06 12:33N 49°48' W 003°23'1110.5
2017-Feb-06 11:31N 49°53' W 003°08'10912.0
2017-Feb-06 02:27N 50°26' W 000°26'1111.3
2017-Feb-06 01:31N 50°28' W 000°10'1112.0
2017-Feb-06 00:33N 50°31' E 000°07'1312.8
2017-Feb-05 23:33N 50°35' E 000°27'1413.2
2017-Feb-05 22:30N 50°42' E 000°45'1713.0
2017-Feb-05 21:13N 50°52' E 001°06'812.4
2017-Feb-05 20:33N 50°58' E 001°16'1211.6
2017-Feb-05 19:34N 51°06' E 001°29'1110.8
2017-Feb-05 18:34N 51°12' E 001°43'1211.6
2017-Feb-05 17:34N 51°22' E 001°52'  
Track history (hours):
 
Tides and Currents Weather Stations Pressure Air Temp Water Temp Dewpoint Dewpoint Depression Visibility Wind Speed Wind Dir Waves Ship Positions

Nassauborg

Ship's website: http://www.wagenborg.com/index.cfm?pid=37&itemid=158&contentitemid=236

Last reported at 2017-Feb-14 10:12 UTC. Time now 2017-Feb-21 17:29 UTC.
Position N 36°09' E 014°41'.

Length 143 m; beam 22 m.

Type: Ship. MMSI: 246430000.

Date/timePositionNaut miles runAvg speedWind from/ knotsBaromVisibWave heightAir tempDewpointWater temp
2017-Feb-14 10:12N 36°09' E 014°41'711.4
2017-Feb-14 09:33N 36°12' E 014°32'1110.8
2017-Feb-14 08:33N 36°14' E 014°19'1310.8
2017-Feb-14 07:23N 36°18' E 014°04'  
2017-Feb-10 20:34N 35°60' W 005°14'1413.1
2017-Feb-10 19:31N 35°57' W 005°30'257 9.8
2017-Feb-09 17:23N 38°19' W 009°59'911.1
2017-Feb-09 16:34N 38°28' W 010°01'1510.8
2017-Feb-09 15:11N 38°42' W 010°06'1710.2
2017-Feb-09 13:32N 38°59' W 010°06'1010.1
2017-Feb-09 12:32N 39°09' W 010°07'  
2017-Feb-06 13:15N 49°45' W 003°32'710.1
2017-Feb-06 12:33N 49°48' W 003°23'1110.5
2017-Feb-06 11:31N 49°53' W 003°08'10912.0
2017-Feb-06 02:27N 50°26' W 000°26'1111.3
2017-Feb-06 01:31N 50°28' W 000°10'1112.0
2017-Feb-06 00:33N 50°31' E 000°07'1312.8
2017-Feb-05 23:33N 50°35' E 000°27'1413.2
2017-Feb-05 22:30N 50°42' E 000°45'1713.0
2017-Feb-05 21:13N 50°52' E 001°06'812.4
2017-Feb-05 20:33N 50°58' E 001°16'1211.6
2017-Feb-05 19:34N 51°06' E 001°29'1110.8
2017-Feb-05 18:34N 51°12' E 001°43'1211.6
2017-Feb-05 17:34N 51°22' E 001°52'  

Dump ship's entire track history